Time;durP1;ratioP1;P1;durP2;ratioP2;P2;SDS_P1;SDS_P2;PMS_P1;PMS_P2;Temp;Humidity;BMP_temperature;BMP_pressure;BME280_temperature;BME280_humidity;BME280_pressure;Samples;Min_cycle;Max_cycle;Signal;HPM_P1;HPM_P2
2022/08/05 00:00:15;;;;;;;17.12;11.48;;;;;;;21.12;74.58;99379.69;1727827;83;21509;-43
2022/08/05 00:02:45;;;;;;;14.98;11.70;;;;;;;21.11;74.56;99367.87;1728006;83;20991;-43
2022/08/05 00:05:12;;;;;;;12.58;11.00;;;;;;;21.08;74.70;99372.10;1727987;83;21082;-43
2022/08/05 00:07:41;;;;;;;13.38;10.15;;;;;;;21.06;74.79;99375.28;1728172;83;20967;-43
2022/08/05 00:10:09;;;;;;;12.10;10.85;;;;;;;21.06;75.04;99378.04;1728036;83;21529;-43
2022/08/05 00:12:36;;;;;;;11.33;10.20;;;;;;;21.08;75.08;99383.91;1728134;83;23154;-43
2022/08/05 00:15:04;;;;;;;12.03;10.45;;;;;;;21.12;75.10;99381.06;1727736;83;21493;-43
2022/08/05 00:17:31;;;;;;;13.15;10.78;;;;;;;21.14;75.10;99379.47;1727933;83;21051;-43
2022/08/05 00:19:58;;;;;;;14.35;11.60;;;;;;;21.20;75.25;99379.11;1727826;83;20971;-43
2022/08/05 00:22:25;;;;;;;12.68;11.25;;;;;;;21.23;75.28;99375.52;1727897;83;20974;-43
2022/08/05 00:24:52;;;;;;;12.47;11.18;;;;;;;21.25;75.38;99386.87;1727969;83;21139;-43
2022/08/05 00:27:19;;;;;;;13.70;11.57;;;;;;;21.30;75.57;99386.95;1727912;83;21022;-43
2022/08/05 00:29:46;;;;;;;13.28;11.85;;;;;;;21.34;75.69;99389.64;1727945;83;20951;-43
2022/08/05 00:32:13;;;;;;;13.28;11.88;;;;;;;21.36;75.80;99383.86;1727829;83;21046;-43
2022/08/05 00:34:41;;;;;;;14.68;12.10;;;;;;;21.39;75.75;99384.99;1728321;83;21478;-43
2022/08/05 00:37:08;;;;;;;16.52;12.35;;;;;;;21.41;75.82;99383.34;1727852;83;21230;-43
2022/08/05 00:39:35;;;;;;;13.85;12.50;;;;;;;21.42;75.73;99383.52;1742195;81;21025;-43
2022/08/05 00:42:02;;;;;;;13.25;11.70;;;;;;;21.45;75.67;99385.40;1754144;81;21051;-43
2022/08/05 00:44:29;;;;;;;14.05;12.63;;;;;;;21.29;75.54;99346.04;1754495;81;21047;-43
2022/08/05 00:46:56;;;;;;;13.48;12.03;;;;;;;21.49;75.53;99378.44;1754376;81;21571;-42
2022/08/05 00:49:23;;;;;;;14.45;11.90;;;;;;;21.47;75.56;99383.59;1754409;81;23111;-43
2022/08/05 00:51:50;;;;;;;13.25;11.85;;;;;;;21.45;75.54;99381.27;1754488;81;20990;-43
2022/08/05 00:54:17;;;;;;;12.80;11.60;;;;;;;21.18;75.72;99338.80;1754410;81;21022;-42
2022/08/05 00:56:44;;;;;;;14.23;11.78;;;;;;;21.44;75.72;99376.98;1754539;81;20967;-43
2022/08/05 00:59:11;;;;;;;13.22;11.83;;;;;;;21.39;75.58;99370.59;1754588;81;21497;-43
2022/08/05 01:01:39;;;;;;;12.47;11.28;;;;;;;21.33;75.78;99368.78;1751610;81;21566;-43
2022/08/05 01:04:06;;;;;;;12.55;11.30;;;;;;;21.29;76.03;99367.50;1751498;82;21076;-43
2022/08/05 01:06:33;;;;;;;12.28;11.08;;;;;;;21.30;76.08;99366.27;1751222;82;20934;-43
2022/08/05 01:09:00;;;;;;;12.03;10.88;;;;;;;21.34;76.04;99352.41;1751161;82;21398;-43
2022/08/05 01:11:32;;;;;;;12.10;10.90;;;;;;;21.35;75.98;99354.72;1751271;82;21465;-43
2022/08/05 01:14:16;;;;;;;11.80;10.60;;;;;;;21.38;75.86;99355.86;1751309;82;21136;-43
2022/08/05 01:17:03;;;;;;;12.73;11.48;;;;;;;21.41;75.78;99359.12;1751475;82;21538;-43
2022/08/05 01:19:42;;;;;;;13.10;11.60;;;;;;;21.42;75.80;99357.92;1751333;82;21072;-42
2022/08/05 01:22:48;;;;;;;12.05;10.88;;;;;;;21.42;75.77;99362.05;1751175;82;20997;-42
2022/08/05 01:25:53;;;;;;;13.08;11.78;;;;;;;21.41;75.73;99358.52;1751539;82;20973;-42
2022/08/05 01:28:52;;;;;;;12.33;11.12;;;;;;;21.40;75.60;99360.32;1751240;82;23173;-42
2022/08/05 01:31:29;;;;;;;12.75;11.15;;;;;;;21.34;75.65;99355.17;1708429;83;21021;-42
2022/08/05 01:34:19;;;;;;;14.10;11.55;;;;;;;21.31;75.64;99358.77;1708137;84;21065;-43
2022/08/05 01:36:50;;;;;;;12.95;11.08;;;;;;;21.28;75.79;99352.16;1735221;81;20965;-43
2022/08/05 01:39:16;;;;;;;15.98;12.03;;;;;;;21.23;75.86;99357.59;1749572;81;21005;-43
2022/08/05 01:41:43;;;;;;;12.40;11.10;;;;;;;21.21;76.08;99355.85;1743296;81;21102;-43
2022/08/05 01:44:11;;;;;;;12.65;11.35;;;;;;;21.22;76.19;99359.39;1743495;82;20965;-43
2022/08/05 01:46:39;;;;;;;13.10;11.68;;;;;;;21.23;76.08;99353.45;1743484;82;20942;-43
2022/08/05 01:49:06;;;;;;;12.70;11.40;;;;;;;21.22;76.14;99361.55;1732709;82;21005;-42
2022/08/05 01:51:35;;;;;;;12.43;11.22;;;;;;;21.17;76.06;99349.66;1733106;82;21484;-43
2022/08/05 01:54:04;;;;;;;13.28;11.73;;;;;;;21.13;76.28;99357.23;1743424;82;21093;-43
2022/08/05 01:56:34;;;;;;;13.48;12.10;;;;;;;21.11;76.39;99347.20;1733722;82;21361;-43
2022/08/05 01:59:03;;;;;;;12.95;11.65;;;;;;;21.11;76.51;99356.07;1743391;81;21053;-43
2022/08/05 02:01:32;;;;;;;18.00;12.43;;;;;;;21.10;76.64;99352.56;1743922;81;21488;-43
2022/08/05 02:03:59;;;;;;;14.05;12.20;;;;;;;21.10;76.67;99351.19;1743285;82;21029;-42
2022/08/05 02:06:26;;;;;;;12.13;10.98;;;;;;;21.08;76.59;99348.08;1743427;81;21129;-43
2022/08/05 02:08:53;;;;;;;13.40;12.05;;;;;;;21.08;76.70;99349.45;1743191;81;20961;-42
2022/08/05 02:11:20;;;;;;;15.40;12.18;;;;;;;21.09;76.70;99341.36;1743270;82;21018;-43
2022/08/05 02:14:10;;;;;;;15.05;12.33;;;;;;;21.10;76.67;99340.77;1743393;81;21077;-42
2022/08/05 02:16:50;;;;;;;14.63;12.15;;;;;;;21.10;76.68;99342.92;1742860;81;21058;-42
2022/08/05 02:19:30;;;;;;;;;;;;;;;21.07;76.85;99345.14;1746006;82;21833;-42
2022/08/05 02:22:17;;;;;;;14.73;12.68;;;;;;;21.05;76.89;99344.81;1743086;82;21517;-42
2022/08/05 02:24:52;;;;;;;15.60;13.18;;;;;;;20.94;77.22;99347.03;1743494;82;20978;-43
2022/08/05 02:27:19;;;;;;;15.65;12.75;;;;;;;20.91;77.29;99354.80;1743801;82;21005;-42
2022/08/05 02:29:47;;;;;;;14.85;13.35;;;;;;;20.87;77.58;99351.31;1743581;82;21404;-43
2022/08/05 02:32:17;;;;;;;13.30;12.00;;;;;;;20.86;77.69;99351.17;1743512;81;21941;-42
2022/08/05 02:34:44;;;;;;;14.28;12.88;;;;;;;20.87;77.73;99349.16;1743865;82;20962;-43
2022/08/05 02:37:11;;;;;;;14.85;13.03;;;;;;;20.88;77.78;99346.59;1743455;82;21002;-43
2022/08/05 02:39:39;;;;;;;15.13;13.25;;;;;;;20.89;77.87;99351.67;1743568;82;21515;-42
2022/08/05 02:42:07;;;;;;;15.20;12.73;;;;;;;20.88;77.86;99359.77;1755750;81;20973;-43
2022/08/05 02:44:36;;;;;;;14.80;13.20;;;;;;;20.88;77.94;99355.63;1757284;81;21101;-42
2022/08/05 02:47:05;;;;;;;14.28;12.88;;;;;;;20.91;78.03;99363.66;1756935;81;21581;-43
2022/08/05 02:49:35;;;;;;;15.08;12.75;;;;;;;20.94;78.13;99361.41;1740018;81;21029;-43
2022/08/05 02:52:04;;;;;;;17.35;13.22;;;;;;;20.98;78.04;99361.50;1757088;81;21800;-42
2022/08/05 02:54:32;;;;;;;14.55;13.05;;;;;;;20.74;77.92;99326.43;1756960;81;21032;-43
2022/08/05 02:56:59;;;;;;;13.62;12.30;;;;;;;21.02;77.67;99360.03;1756796;81;21717;-43
2022/08/05 02:59:26;;;;;;;14.03;11.75;;;;;;;21.02;77.58;99364.95;1756609;81;21535;-43
2022/08/05 03:01:59;;;;;;;12.85;10.85;;;;;;;21.06;77.46;99362.88;1756825;81;21669;-42
2022/08/05 03:04:22;;;;;;;12.73;11.38;;;;;;;21.11;77.33;99359.61;1756460;81;21009;-43
2022/08/05 03:06:49;;;;;;;12.05;10.85;;;;;;;21.15;76.92;99367.25;1756839;81;21080;-43
2022/08/05 03:09:17;;;;;;;11.73;10.53;;;;;;;21.18;76.68;99359.48;1756746;81;21289;-43
2022/08/05 03:11:44;;;;;;;12.07;10.78;;;;;;;21.22;76.48;99360.16;1756532;81;21476;-42
2022/08/05 03:14:11;;;;;;;11.70;10.60;;;;;;;21.25;76.27;99357.16;1756931;81;21582;-43
2022/08/05 03:16:37;;;;;;;11.95;10.38;;;;;;;21.28;76.19;99363.19;1756810;81;20938;-42
2022/08/05 03:19:05;;;;;;;16.75;10.60;;;;;;;21.32;76.17;99363.09;1756809;81;21080;-43
2022/08/05 03:21:32;;;;;;;11.20;9.90;;;;;;;21.36;76.01;99374.20;1756869;81;21175;-43
2022/08/05 03:23:59;;;;;;;12.15;10.35;;;;;;;21.40;75.90;99369.37;1756880;81;20905;-43
2022/08/05 03:26:27;;;;;;;11.28;10.13;;;;;;;21.44;75.78;99372.06;1756908;81;21072;-43
2022/08/05 03:28:55;;;;;;;11.45;10.32;;;;;;;21.46;75.76;99368.25;1756881;81;21566;-43
2022/08/05 03:31:21;;;;;;;12.28;10.23;;;;;;;21.49;75.71;99364.64;1757332;81;21488;-43
2022/08/05 03:33:49;;;;;;;12.28;10.90;;;;;;;21.52;75.58;99363.17;1740088;81;21338;-43
2022/08/05 03:36:15;;;;;;;11.18;10.08;;;;;;;21.54;75.33;99362.75;1756985;81;20981;-43
2022/08/05 03:38:43;;;;;;;13.03;9.90;;;;;;;21.56;75.28;99365.83;1756835;81;21021;-43
2022/08/05 03:41:10;;;;;;;12.35;10.05;;;;;;;21.57;75.06;99364.62;1752057;81;21042;-43
2022/08/05 03:43:37;;;;;;;11.30;10.05;;;;;;;21.58;74.88;99370.32;1743808;82;21041;-43
2022/08/05 03:46:04;;;;;;;11.03;9.93;;;;;;;21.56;74.85;99371.34;1743533;82;21306;-43
2022/08/05 03:48:31;;;;;;;13.28;11.25;;;;;;;21.56;74.89;99367.98;1743594;82;20934;-43
2022/08/05 03:51:07;;;;;;;12.13;10.60;;;;;;;21.53;74.93;99366.11;1743541;81;21020;-42
2022/08/05 03:53:51;;;;;;;12.10;10.72;;;;;;;21.52;75.08;99371.44;1743486;82;20974;-43
2022/08/05 03:56:29;;;;;;;12.28;11.03;;;;;;;21.53;75.07;99370.84;1718484;81;21025;-43
2022/08/05 03:59:02;;;;;;;11.20;10.10;;;;;;;21.54;75.11;99372.40;1743239;82;23269;-43
2022/08/05 04:01:31;;;;;;;11.53;10.32;;;;;;;21.53;75.14;99370.24;1743239;81;20934;-43
2022/08/05 04:03:58;;;;;;;11.38;10.23;;;;;;;21.54;75.08;99377.92;1743668;82;20989;-43
2022/08/05 04:06:25;;;;;;;12.37;10.23;;;;;;;21.57;75.17;99374.28;1743573;82;21005;-43
2022/08/05 04:08:53;;;;;;;11.80;10.50;;;;;;;21.59;75.06;99375.39;1743425;82;21081;-43
2022/08/05 04:11:20;;;;;;;12.65;11.43;;;;;;;21.61;74.94;99377.72;1733032;82;21138;-43
2022/08/05 04:13:47;;;;;;;12.45;10.90;;;;;;;21.60;75.17;99367.28;1743542;82;21006;-42
2022/08/05 04:16:14;;;;;;;13.43;11.00;;;;;;;21.61;75.13;99380.48;1743578;82;21464;-43
2022/08/05 04:18:42;;;;;;;13.15;11.73;;;;;;;21.63;75.11;99380.23;1743618;81;21038;-43
2022/08/05 04:21:09;;;;;;;11.57;10.53;;;;;;;21.64;74.88;99374.86;1709062;82;21077;-43
2022/08/05 04:23:36;;;;;;;12.95;10.38;;;;;;;21.64;74.96;99378.22;1743695;82;21093;-43
2022/08/05 04:26:04;;;;;;;10.78;9.78;;;;;;;21.63;74.86;99378.08;1743317;82;20962;-43
2022/08/05 04:28:32;;;;;;;11.45;9.58;;;;;;;21.67;74.62;99385.05;1744126;82;21013;-43
2022/08/05 04:30:59;;;;;;;10.38;9.38;;;;;;;21.65;74.84;99383.31;1707569;84;21560;-42
2022/08/05 04:33:26;;;;;;;9.90;8.90;;;;;;;21.68;74.96;99380.31;1743841;81;21590;-43
2022/08/05 04:35:53;;;;;;;10.08;9.15;;;;;;;21.73;74.76;99385.30;1743674;82;21083;-43
2022/08/05 04:38:20;;;;;;;11.00;9.10;;;;;;;21.77;74.38;99370.80;1743671;81;21292;-43
2022/08/05 04:40:47;;;;;;;9.80;8.80;;;;;;;21.79;74.25;99371.13;1743476;82;21464;-43
2022/08/05 04:43:15;;;;;;;9.90;8.90;;;;;;;21.82;74.25;99366.14;1743507;82;21076;-43
2022/08/05 04:45:42;;;;;;;9.68;8.68;;;;;;;21.88;73.94;99365.01;1743519;82;21001;-43
2022/08/05 04:48:13;;;;;;;9.08;8.28;;;;;;;21.91;73.37;99367.66;1743682;82;22079;-43
2022/08/05 04:50:43;;;;;;;9.05;8.25;;;;;;;21.95;73.19;99365.61;1743476;82;21013;-42
2022/08/05 04:53:11;;;;;;;9.48;8.45;;;;;;;21.99;73.04;99364.12;1743456;82;21000;-43
2022/08/05 04:55:39;;;;;;;9.05;8.18;;;;;;;22.00;72.92;99360.94;1743593;82;21535;-43
2022/08/05 04:58:07;;;;;;;9.38;8.50;;;;;;;22.03;72.99;99357.29;1743524;82;21088;-43
2022/08/05 05:00:35;;;;;;;9.70;8.55;;;;;;;22.06;72.98;99363.34;1743712;82;21752;-43
2022/08/05 05:03:04;;;;;;;9.20;8.10;;;;;;;22.06;72.88;99360.58;1743415;81;20962;-43
2022/08/05 05:05:31;;;;;;;9.25;8.10;;;;;;;22.07;72.72;99366.88;1743716;81;21544;-43
2022/08/05 05:08:05;;;;;;;10.80;8.30;;;;;;;22.07;72.77;99363.48;1743222;81;21053;-43
2022/08/05 05:10:42;;;;;;;10.35;8.28;;;;;;;22.07;72.86;99369.00;1707941;84;21571;-42
2022/08/05 05:13:14;;;;;;;9.45;8.53;;;;;;;22.06;72.54;99363.94;1707331;84;21237;-43
2022/08/05 05:15:41;;;;;;;11.18;8.50;;;;;;;22.00;72.46;99369.81;1743350;82;21527;-43
2022/08/05 05:18:09;;;;;;;9.78;8.63;;;;;;;21.93;72.79;99365.86;1743354;82;20970;-42
2022/08/05 05:20:35;;;;;;;9.30;8.45;;;;;;;21.90;73.08;99367.48;1686086;84;20900;-43
2022/08/05 05:23:03;;;;;;;9.35;8.45;;;;;;;21.88;73.24;99368.52;1707539;84;21028;-42
2022/08/05 05:25:30;;;;;;;9.80;8.90;;;;;;;21.85;73.51;99363.88;1743487;82;21235;-43
2022/08/05 05:27:57;;;;;;;9.88;8.88;;;;;;;21.84;73.69;99365.08;1743214;82;21024;-43
2022/08/05 05:30:24;;;;;;;11.50;9.73;;;;;;;21.85;73.98;99372.76;1743389;81;20937;-43
2022/08/05 05:32:51;;;;;;;10.40;9.03;;;;;;;21.86;74.15;99370.17;1743202;81;21601;-43
2022/08/05 05:35:21;;;;;;;10.08;9.08;;;;;;;21.85;74.29;99368.02;1707689;84;21550;-43
2022/08/05 05:37:50;;;;;;;9.88;8.83;;;;;;;21.88;74.38;99364.38;1743636;82;21213;-43
2022/08/05 05:40:19;;;;;;;9.85;8.73;;;;;;;21.91;74.28;99366.89;1743378;82;21472;-43
2022/08/05 05:42:47;;;;;;;9.85;8.90;;;;;;;21.86;74.11;99370.95;1743411;82;21008;-43
2022/08/05 05:45:14;;;;;;;13.08;9.23;;;;;;;21.82;74.05;99377.78;1707849;84;21016;-42
2022/08/05 05:47:42;;;;;;;9.43;8.53;;;;;;;21.79;74.42;99380.79;1707904;84;21025;-43
2022/08/05 05:50:11;;;;;;;9.33;8.48;;;;;;;21.80;74.66;99374.06;1743584;82;21269;-43
2022/08/05 05:52:38;;;;;;;9.93;8.93;;;;;;;21.81;74.81;99371.48;1743593;82;20958;-43
2022/08/05 05:55:07;;;;;;;9.73;8.73;;;;;;;21.86;74.97;99377.08;1743491;82;20977;-43
2022/08/05 05:57:36;;;;;;;9.23;8.23;;;;;;;21.90;74.54;99374.39;1743497;81;21010;-43
2022/08/05 06:00:06;;;;;;;9.38;8.48;;;;;;;21.89;74.41;99371.45;1707550;84;21076;-43
2022/08/05 06:02:35;;;;;;;9.53;8.63;;;;;;;21.88;74.44;99375.41;1707575;83;21096;-42
2022/08/05 06:05:03;;;;;;;11.03;8.80;;;;;;;21.87;74.70;99375.27;1707668;84;21083;-43
2022/08/05 06:07:30;;;;;;;10.72;8.63;;;;;;;21.88;74.46;99380.94;1743931;82;20997;-43
2022/08/05 06:09:58;;;;;;;10.20;8.15;;;;;;;21.89;74.57;99378.95;1707655;83;21024;-43
2022/08/05 06:12:25;;;;;;;8.68;7.85;;;;;;;21.92;74.74;99376.12;1743660;82;21013;-43
2022/08/05 06:14:52;;;;;;;9.40;8.50;;;;;;;21.98;74.87;99379.91;1743526;82;21247;-43
2022/08/05 06:17:19;;;;;;;8.88;8.05;;;;;;;22.06;74.61;99388.19;1743385;81;21001;-43
2022/08/05 06:19:46;;;;;;;10.03;8.25;;;;;;;22.14;74.58;99385.22;1743491;81;20895;-42
2022/08/05 06:22:16;;;;;;;9.38;7.97;;;;;;;22.23;73.92;99383.97;1743269;81;21001;-43
2022/08/05 06:24:43;;;;;;;9.23;8.20;;;;;;;22.31;73.60;99383.36;1664274;84;21515;-43
2022/08/05 06:27:10;;;;;;;12.78;7.92;;;;;;;22.38;73.20;99374.07;1707655;84;21133;-43
2022/08/05 06:29:38;;;;;;;8.88;7.97;;;;;;;22.44;73.09;99381.39;1707730;84;20976;-43
2022/08/05 06:32:05;;;;;;;8.50;7.65;;;;;;;22.49;72.86;99386.38;1707795;84;21089;-43
2022/08/05 06:34:32;;;;;;;9.50;7.67;;;;;;;22.54;72.87;99379.53;1707600;84;21001;-43
2022/08/05 06:36:59;;;;;;;7.50;6.80;;;;;;;22.60;72.39;99380.54;1707844;84;21096;-43
2022/08/05 06:39:26;;;;;;;7.50;6.85;;;;;;;22.61;72.09;99384.83;1707463;84;23135;-43
2022/08/05 06:42:00;;;;;;;8.33;6.60;;;;;;;22.60;71.97;99388.83;1707547;83;20989;-43
2022/08/05 06:44:26;;;;;;;6.95;6.30;;;;;;;22.59;71.77;99388.66;1743605;81;20922;-42
2022/08/05 06:46:54;;;;;;;8.58;6.42;;;;;;;22.60;71.60;99390.21;1743434;82;21600;-43
2022/08/05 06:49:21;;;;;;;6.12;5.62;;;;;;;;;;1743916;82;21017;-43
2022/08/05 06:51:50;;;;;;;5.92;5.35;;;;;;;22.63;71.07;99393.47;1743728;81;21142;-43
2022/08/05 06:54:17;;;;;;;6.27;5.67;;;;;;;22.65;70.81;99389.67;1707803;84;21495;-43
2022/08/05 06:56:44;;;;;;;6.90;6.20;;;;;;;22.65;70.57;99388.89;1707919;84;21020;-43
2022/08/05 06:59:13;;;;;;;6.00;5.50;;;;;;;22.64;70.53;99396.41;1707773;84;21088;-43
2022/08/05 07:01:40;;;;;;;5.58;4.97;;;;;;;22.62;70.79;99405.73;1744044;82;20990;-43
2022/08/05 07:04:07;;;;;;;6.30;4.95;;;;;;;22.63;70.54;99398.99;1743437;81;23185;-43
2022/08/05 07:06:34;;;;;;;6.55;5.70;;;;;;;22.63;70.51;99407.89;1743311;82;20993;-43
2022/08/05 07:09:01;;;;;;;6.00;5.40;;;;;;;22.63;70.43;99401.75;1743340;82;21037;-43
2022/08/05 07:11:29;;;;;;;8.03;5.58;;;;;;;22.65;70.46;99398.56;1743390;81;21005;-43
2022/08/05 07:16:48;;;;;;;6.75;5.37;;;;;;;22.62;70.20;99396.66;1734964;82;21099;-43
2022/08/05 07:19:19;;;;;;;5.55;5.05;;;;;;;;;;1735035;82;21024;-43
2022/08/05 07:21:47;;;;;;;5.83;5.33;;;;;;;22.67;70.83;99409.94;1734931;82;20923;-43
2022/08/05 07:24:15;;;;;;;6.00;5.50;;;;;;;22.71;70.58;99397.59;1734813;82;21048;-43
2022/08/05 07:26:43;;;;;;;7.90;5.30;;;;;;;22.77;70.30;99408.27;1735217;82;21018;-43
2022/08/05 07:29:11;;;;;;;5.62;4.85;;;;;;;22.82;70.12;99407.73;1734933;82;21230;-43
2022/08/05 07:31:37;;;;;;;5.47;4.97;;;;;;;22.88;69.88;99404.59;1735202;82;21073;-43
2022/08/05 07:34:05;;;;;;;6.25;5.40;;;;;;;22.92;69.61;99405.25;1734965;82;20962;-43
2022/08/05 07:36:34;;;;;;;7.47;5.92;;;;;;;22.95;69.15;99409.88;1734829;82;20934;-43
2022/08/05 07:39:07;;;;;;;7.20;6.50;;;;;;;22.98;68.99;99412.99;1735037;82;21073;-43
2022/08/05 07:41:34;;;;;;;7.47;5.78;;;;;;;22.96;68.69;99412.82;1735001;82;21857;-43
2022/08/05 07:44:03;;;;;;;7.25;6.37;;;;;;;22.94;68.61;99408.97;1734853;82;21018;-43
2022/08/05 07:46:31;;;;;;;8.03;6.80;;;;;;;22.92;68.73;99410.00;1735269;82;21122;-43
2022/08/05 07:48:59;;;;;;;9.15;7.97;;;;;;;22.92;68.65;99413.55;1734860;82;21596;-43
2022/08/05 07:51:26;;;;;;;8.28;6.90;;;;;;;22.93;68.60;99417.86;1734927;82;20992;-43
2022/08/05 07:53:53;;;;;;;8.85;8.00;;;;;;;22.95;68.63;99420.94;1735009;82;21234;-43
2022/08/05 07:56:20;;;;;;;8.53;7.60;;;;;;;23.00;68.62;99421.00;1734882;82;21050;-42
2022/08/05 07:58:47;;;;;;;9.68;8.55;;;;;;;23.08;68.62;99425.72;1734925;82;21027;-42
2022/08/05 08:01:13;;;;;;;9.58;8.03;;;;;;;23.14;68.24;99419.81;1734983;82;21061;-43
2022/08/05 08:03:41;;;;;;;8.70;7.90;;;;;;;23.22;67.77;99425.28;1735231;82;21092;-43
2022/08/05 08:06:07;;;;;;;8.73;7.85;;;;;;;23.29;67.35;99425.81;1735093;82;21191;-43
2022/08/05 08:08:36;;;;;;;9.35;8.45;;;;;;;23.34;67.08;99430.78;1729954;82;20987;-43
2022/08/05 08:11:03;;;;;;;10.63;8.90;;;;;;;23.38;67.35;99430.70;1735159;82;20922;-43
2022/08/05 08:13:30;;;;;;;9.65;8.75;;;;;;;23.45;67.13;99432.47;1735215;82;20974;-43
2022/08/05 08:15:57;;;;;;;10.28;8.40;;;;;;;23.48;67.34;99432.34;1735271;82;21089;-43
2022/08/05 08:18:24;;;;;;;9.75;8.40;;;;;;;23.54;67.44;99429.80;1735265;82;21242;-43
2022/08/05 08:20:51;;;;;;;10.48;8.80;;;;;;;23.62;67.18;99431.13;1735289;82;21571;-43
2022/08/05 08:23:20;;;;;;;9.13;8.33;;;;;;;23.66;66.62;99428.41;1734986;82;21010;-43
2022/08/05 08:25:47;;;;;;;9.95;8.93;;;;;;;23.69;66.40;99433.65;1734989;82;21643;-43
2022/08/05 08:28:14;;;;;;;9.60;8.70;;;;;;;23.71;66.66;99436.16;1735078;82;21511;-43
2022/08/05 08:30:41;;;;;;;9.40;8.50;;;;;;;23.76;66.42;99438.36;1735051;82;21243;-43
2022/08/05 08:33:09;;;;;;;9.88;8.95;;;;;;;23.81;66.17;99430.87;1734950;82;21034;-43
2022/08/05 08:35:38;;;;;;;10.93;9.30;;;;;;;23.86;66.12;99430.91;1735221;82;20957;-43
2022/08/05 08:38:05;;;;;;;9.85;8.85;;;;;;;23.94;65.81;99434.20;1735146;82;21041;-43
2022/08/05 08:40:34;;;;;;;12.15;9.30;;;;;;;24.02;65.22;99432.72;1734870;82;21528;-43
2022/08/05 08:43:01;;;;;;;10.43;9.43;;;;;;;24.07;65.20;99434.31;1738447;81;21170;-43
2022/08/05 08:45:30;;;;;;;11.57;9.33;;;;;;;24.14;64.72;99436.06;1743380;82;21021;-43
2022/08/05 08:48:01;;;;;;;10.93;9.85;;;;;;;24.20;64.18;99431.54;1743125;82;20961;-43
2022/08/05 08:50:27;;;;;;;10.28;9.35;;;;;;;24.22;63.73;99434.01;1743060;81;21034;-43
2022/08/05 08:53:04;;;;;;;10.70;9.70;;;;;;;24.22;63.58;99437.39;1743139;82;21061;-43
2022/08/05 08:55:33;;;;;;;10.28;9.38;;;;;;;24.21;63.71;99435.84;1743051;82;21147;-43
2022/08/05 08:58:00;;;;;;;10.88;9.78;;;;;;;24.21;63.72;99446.91;1743136;82;20973;-43
2022/08/05 09:00:27;;;;;;;10.70;9.70;;;;;;;24.22;63.95;99442.92;1743149;82;21009;-43
2022/08/05 09:02:55;;;;;;;10.05;9.18;;;;;;;24.28;64.08;99438.98;1742955;82;21029;-43
2022/08/05 09:05:22;;;;;;;9.78;8.38;;;;;;;24.34;64.41;99438.56;1743133;82;21029;-43
2022/08/05 09:07:53;;;;;;;9.80;8.90;;;;;;;24.41;64.13;99432.14;1743111;82;21105;-43
2022/08/05 09:10:20;;;;;;;9.63;8.83;;;;;;;24.46;63.64;99436.33;1743075;82;20942;-43
2022/08/05 09:12:47;;;;;;;11.10;8.93;;;;;;;24.51;63.38;99437.14;1743172;82;21017;-43
2022/08/05 09:15:15;;;;;;;9.65;8.85;;;;;;;24.54;63.43;99433.48;1743066;82;21141;-43
2022/08/05 09:17:42;;;;;;;10.93;9.83;;;;;;;24.62;63.37;99443.06;1743019;82;20970;-43
2022/08/05 09:20:10;;;;;;;10.35;9.35;;;;;;;24.69;62.93;99440.02;1743027;82;21222;-43
2022/08/05 09:23:13;;;;;;;10.88;9.13;;;;;;;24.75;62.93;99440.20;1742909;82;21354;-43
2022/08/05 09:25:43;;;;;;;10.15;9.23;;;;;;;24.84;62.57;99441.64;1743579;82;21441;-43
2022/08/05 09:28:13;;;;;;;;;;;;;;;24.93;62.31;99448.04;1745894;82;20974;-43
2022/08/05 09:30:55;;;;;;;11.08;9.95;;;;;;;25.02;62.57;99442.56;1743376;82;20186;-43
2022/08/05 09:33:23;;;;;;;11.15;10.05;;;;;;;25.08;62.47;99438.55;1743213;82;23118;-43
2022/08/05 09:36:04;;;;;;;11.05;10.05;;;;;;;25.26;61.99;99434.49;1743577;82;21465;-42
2022/08/05 09:38:31;;;;;;;10.82;9.73;;;;;;;25.44;61.07;99439.31;1743145;82;20950;-43
2022/08/05 09:41:04;;;;;;;10.63;9.63;;;;;;;25.57;60.08;99439.99;1743113;82;21006;-43
2022/08/05 09:43:34;;;;;;;9.80;8.90;;;;;;;25.66;59.63;99446.20;1740394;82;21515;-43
2022/08/05 09:46:03;;;;;;;10.08;9.13;;;;;;;25.66;59.91;99443.42;1748891;82;21221;-43
2022/08/05 09:48:33;;;;;;;10.53;9.55;;;;;;;25.66;59.91;99443.42;1748869;81;20961;-43
2022/08/05 09:51:10;;;;;;;10.28;9.28;;;;;;;25.64;60.07;99447.27;1748841;82;20942;-43
2022/08/05 09:53:49;;;;;;;10.98;10.03;;;;;;;25.59;60.26;99449.26;1748880;82;21514;-43
2022/08/05 09:57:29;;;;;;;10.05;9.05;;;;;;;25.61;60.41;99447.55;1782602;79;22781;-43
2022/08/05 10:00:04;;;;;;;10.82;9.83;;;;;;;25.57;60.58;99448.94;1754767;81;20963;-43
2022/08/05 10:02:40;;;;;;;11.33;10.20;;;;;;;25.61;60.82;99448.94;1755047;81;21132;-43
2022/08/05 10:05:12;;;;;;;10.72;9.65;;;;;;;25.66;60.96;99447.59;1754715;81;20950;-43
2022/08/05 10:07:50;;;;;;;10.32;8.95;;;;;;;25.70;60.91;99450.38;1752583;81;21508;-43
2022/08/05 10:10:20;;;;;;;9.95;9.05;;;;;;;25.76;59.93;99440.80;1751375;81;21021;-43
2022/08/05 10:12:52;;;;;;;9.70;8.90;;;;;;;25.87;59.56;99449.47;1755573;81;20966;-43
2022/08/05 10:15:31;;;;;;;11.18;9.58;;;;;;;25.99;59.27;99444.40;1755141;81;21255;-43
2022/08/05 10:18:16;;;;;;;10.50;9.60;;;;;;;26.05;58.99;99439.75;1755397;81;21113;-43
2022/08/05 10:20:46;;;;;;;10.72;9.73;;;;;;;26.05;59.02;99444.53;1755855;81;21611;-43
2022/08/05 10:23:20;;;;;;;11.25;10.23;;;;;;;26.04;59.01;99441.62;1755449;81;21041;-43
2022/08/05 10:25:47;;;;;;;11.38;10.28;;;;;;;25.98;59.00;99440.07;1755665;81;20978;-43
2022/08/05 10:28:14;;;;;;;11.18;10.20;;;;;;;25.94;59.19;99450.56;1755606;81;21924;-43
2022/08/05 10:30:41;;;;;;;10.35;9.35;;;;;;;25.84;59.21;99442.84;1726108;81;21097;-43
2022/08/05 10:33:08;;;;;;;11.50;10.32;;;;;;;25.80;59.19;99449.78;1755589;81;20979;-43
2022/08/05 10:35:35;;;;;;;10.98;9.88;;;;;;;25.75;59.07;99450.38;1755481;81;20990;-43
2022/08/05 10:38:03;;;;;;;10.88;9.70;;;;;;;25.71;59.15;99444.18;1755416;81;21050;-43
2022/08/05 10:41:00;;;;;;;10.50;9.50;;;;;;;25.69;59.79;99443.89;1755393;81;21149;-43
2022/08/05 10:43:54;;;;;;;11.18;9.80;;;;;;;25.70;60.37;99445.44;1755394;81;21025;-43
2022/08/05 10:46:22;;;;;;;10.98;9.88;;;;;;;25.72;59.62;99444.34;1755379;81;21014;-43
2022/08/05 10:49:00;;;;;;;10.88;9.75;;;;;;;25.71;59.82;99445.57;1755481;81;21031;-43
2022/08/05 10:51:25;;;;;;;11.28;10.18;;;;;;;25.78;59.52;99446.06;1754122;81;21070;-43
2022/08/05 10:53:57;;;;;;;10.90;9.93;;;;;;;25.96;59.75;99438.36;1755331;81;21272;-43
2022/08/05 10:56:29;;;;;;;10.88;9.85;;;;;;;26.15;59.19;99441.30;1752907;81;20962;-43
2022/08/05 10:59:04;;;;;;;11.60;10.55;;;;;;;26.36;58.63;99446.58;1750340;82;21805;-43
2022/08/05 11:01:40;;;;;;;11.55;10.50;;;;;;;26.59;57.98;99446.55;1750365;82;21008;-43
2022/08/05 11:04:16;;;;;;;13.22;10.25;;;;;;;26.78;57.13;99440.48;1750196;82;21554;-43
2022/08/05 11:07:03;;;;;;;11.15;10.15;;;;;;;26.93;56.46;99444.80;1750453;82;21135;-43
2022/08/05 11:09:40;;;;;;;10.82;9.78;;;;;;;26.95;56.35;99445.73;1749968;82;20935;-43
2022/08/05 11:12:41;;;;;;;11.38;10.28;;;;;;;26.95;56.74;99439.55;1750024;82;21063;-43
2022/08/05 11:15:16;;;;;;;11.22;10.15;;;;;;;26.96;55.70;99443.88;1749854;82;21533;-43
2022/08/05 11:17:51;;;;;;;10.80;9.80;;;;;;;26.90;55.57;99448.53;1749951;82;21296;-43
2022/08/05 11:20:42;;;;;;;10.18;9.28;;;;;;;26.89;55.96;99450.38;1749852;82;21229;-43
2022/08/05 11:23:33;;;;;;;10.30;9.30;;;;;;;26.89;55.02;99452.55;1749639;82;21019;-43
2022/08/05 11:26:21;;;;;;;10.78;9.75;;;;;;;26.85;54.92;99461.64;1749957;82;21051;-43
2022/08/05 11:28:52;;;;;;;11.40;10.23;;;;;;;26.72;55.46;99465.23;1749813;82;20987;-43
2022/08/05 11:31:22;;;;;;;11.33;10.30;;;;;;;26.59;56.15;99455.66;1749760;82;21090;-43
2022/08/05 11:33:56;;;;;;;11.40;10.40;;;;;;;26.55;56.51;99463.39;1749992;82;21083;-43
2022/08/05 11:36:50;;;;;;;11.28;10.18;;;;;;;26.48;56.62;99465.73;1749713;82;21628;-43
2022/08/05 11:39:49;;;;;;;11.25;10.18;;;;;;;26.43;56.86;99463.58;1749341;82;21014;-43
2022/08/05 11:42:17;;;;;;;13.13;10.40;;;;;;;26.37;56.93;99466.20;1749836;82;21815;-43
2022/08/05 11:44:44;;;;;;;12.58;11.38;;;;;;;26.30;57.15;99464.49;1720153;82;21066;-43